NATURA VA

 INFORMACIÓN METAR y TAF
METAR FOR GCXO
ADDS - METARS form results

(0025 UTC 20 May 2019)
Data provider http://aviationweather.gov/metar/data/
 
METAR text: GCXO 200000Z AUTO 30018KT 9000 BKN005 OVC011 14/13 Q1020
Conditions at: GCXO (TENERIFE/LOS ROD, ES) observed 0000 UTC 20 May 2019
Temperature: 14.0°C (57°F)
Dewpoint: 13.0°C (55°F) [RH = 94%]
Pressure (altimeter): 30.12 inches Hg (1020.0 mb)
Winds: from the WNW (300 degrees) at 21 MPH (18 knots; 9.3 m/s)
Visibility: 6 miles ( 9 km)
Ceiling: 500 feet AGL
Clouds: broken clouds at 500 feet AGL
overcast cloud deck at 1100 feet AGL
Weather: no significant weather observed at this time

METAR text: GCXO 192330Z AUTO 30017KT 9999 SCT003 BKN007 OVC015 14/13 Q1020
Conditions at: GCXO (TENERIFE/LOS ROD, ES) observed 2330 UTC 19 May 2019
Temperature: 14.0°C (57°F)
Dewpoint: 13.0°C (55°F) [RH = 94%]
Pressure (altimeter): 30.12 inches Hg (1020.0 mb)
Winds: from the WNW (300 degrees) at 20 MPH (17 knots; 8.7 m/s)
Visibility: 6 or more miles (10+ km)
Ceiling: 700 feet AGL
Clouds: scattered clouds at 300 feet AGL
broken clouds at 700 feet AGL
overcast cloud deck at 1500 feet AGL
Weather: no significant weather observed at this time

Forecast for: GCXO (TENERIFE/LOS ROD, ES)
Text: TAF GCXO 192000Z 1921/2021 32018KT 9999 BKN012 TX20/2014Z TN13/2006Z
Forecast period: 2100 UTC 19 May 2019 to 2100 UTC 20 May 2019
Forecast type: FROM: standard forecast or significant change
Winds: from the NW (320 degrees) at 21 MPH (18 knots; 9.3 m/s)
Visibility: 6 or more miles 10+ km)
Ceiling: 1200 feet AGL
Clouds: broken clouds at 1200 feet AGL
Weather: no significant weather forecast for this period
Text: PROB40
Forecast period: 2100 UTC 19 May 2019 to 1300 UTC 20 May 2019
Forecast type: TEMPORARY: The following changes expected for less than half the time period
Visibility: 1.86 miles (2.99 km)
Ceiling: 800 feet AGL
Clouds: broken clouds at 800 feet AGL
Weather: BCFG  (patches of fog)
Text: TEMPO 1921/2013 3000 BCFG BKN008
Forecast period: 2100 UTC 19 May 2019 to 0900 UTC 20 May 2019
Forecast type: TEMPORARY: The following changes expected for less than half the time period
Visibility: 0.93 miles (1.50 km)
Ceiling: 400 feet AGL
Clouds: broken clouds at 400 feet AGL
Weather: DZ BCFG  (moderate drizzle, patches of fog)

 MAPA DE AEROPUERTO

 INFORMACIÓN DE PISTA
Pista 12 Longitud 11155 ft Ancho 148 ft
Elevación 2060 ft Umbral desplazado 0 ft Rumbo de pista 111
Pista 30 Longitud 11155 ft Ancho 148 ft
Elevación 2002 ft Umbral desplazado 0 ft Rumbo de pista 291

 FRECUANCIAS DEL AEROPUERTO
Tipo APP Nombre APP Frecuencia 119.7 MHZ
Tipo ATIS Nombre ATIS Frecuencia 118.575 MHZ
Tipo GND Nombre GND Frecuencia 121.7 MHZ
Tipo TWR Nombre TWR Frecuencia 118.7 MHZ

 RADIO AYUDAS DEL AEROPUERTO
Tipo VOR-DME Nombre Tenerife Norte Frecuencia 117700 KHZ
Tipo NDB Nombre Tenerife Norte Frecuencia 410 KHZ



Powered by Virtual Airlines Manager [v2.6.2]